sensor_id;sensor_type;location;lat;lon;timestamp;pressure;altitude;pressure_sealevel;temperature;humidity
80911;BME280;70359;51.420;7.032;2023-07-08T00:01:07;1002.781;;;22.2;42.2793
80911;BME280;70359;51.420;7.032;2023-07-08T00:03:32;1002.728;;;22.21;42.77051
80911;BME280;70359;51.420;7.032;2023-07-08T00:05:57;1002.728;;;22.21;42.47852
80911;BME280;70359;51.420;7.032;2023-07-08T00:08:22;1002.696;;;22.23;42.29395
80911;BME280;70359;51.420;7.032;2023-07-08T00:10:47;1002.685;;;22.28;42.3916
80911;BME280;70359;51.420;7.032;2023-07-08T00:13:12;1002.708;;;22.27;42.13477
80911;BME280;70359;51.420;7.032;2023-07-08T00:15:38;1002.657;;;22.32;43.02637
80911;BME280;70359;51.420;7.032;2023-07-08T00:18:05;1002.64;;;22.31;43.08398
80911;BME280;70359;51.420;7.032;2023-07-08T00:20:29;1002.603;;;22.3;43.28223
80911;BME280;70359;51.420;7.032;2023-07-08T00:22:52;1002.614;;;22.29;42.26465
80911;BME280;70359;51.420;7.032;2023-07-08T00:25:17;1002.54;;;22.31;42.83887
80911;BME280;70359;51.420;7.032;2023-07-08T00:27:42;1002.536;;;22.28;42.4502
80911;BME280;70359;51.420;7.032;2023-07-08T00:32:32;1002.5;;;22.26;42.81152
80911;BME280;70359;51.420;7.032;2023-07-08T00:34:57;1002.468;;;22.27;42.8584
80911;BME280;70359;51.420;7.032;2023-07-08T00:37:22;1002.501;;;22.23;42.80762
80911;BME280;70359;51.420;7.032;2023-07-08T00:39:47;1002.47;;;22.24;42.76172
80911;BME280;70359;51.420;7.032;2023-07-08T00:42:24;1002.469;;;22.25;42.90234
80911;BME280;70359;51.420;7.032;2023-07-08T00:44:37;1002.459;;;22.25;42.3418
80911;BME280;70359;51.420;7.032;2023-07-08T00:47:04;1002.509;;;22.28;42.25098
80911;BME280;70359;51.420;7.032;2023-07-08T00:49:29;1002.495;;;22.29;42.07813
80911;BME280;70359;51.420;7.032;2023-07-08T00:51:52;1002.49;;;22.26;42.18066
80911;BME280;70359;51.420;7.032;2023-07-08T00:54:18;1002.474;;;22.23;41.69922
80911;BME280;70359;51.420;7.032;2023-07-08T00:56:42;1002.467;;;22.23;41.75684
80911;BME280;70359;51.420;7.032;2023-07-08T00:59:08;1002.45;;;22.23;41.74512
80911;BME280;70359;51.420;7.032;2023-07-08T01:01:32;1002.462;;;22.26;41.53711
80911;BME280;70359;51.420;7.032;2023-07-08T01:03:58;1002.427;;;22.23;41.53418
80911;BME280;70359;51.420;7.032;2023-07-08T01:06:23;1002.43;;;22.28;41.44629
80911;BME280;70359;51.420;7.032;2023-07-08T01:08:47;1002.395;;;22.15;41.6084
80911;BME280;70359;51.420;7.032;2023-07-08T01:11:12;1002.375;;;22.23;41.52246
80911;BME280;70359;51.420;7.032;2023-07-08T01:13:39;1002.326;;;22.18;41.7627
80911;BME280;70359;51.420;7.032;2023-07-08T01:16:03;1002.316;;;22.2;41.87109
80911;BME280;70359;51.420;7.032;2023-07-08T01:18:27;1002.295;;;22.15;41.86621
80911;BME280;70359;51.420;7.032;2023-07-08T01:20:52;1002.261;;;22.16;42.10059
80911;BME280;70359;51.420;7.032;2023-07-08T01:23:17;1002.285;;;22.16;42.14648
80911;BME280;70359;51.420;7.032;2023-07-08T01:25:42;1002.255;;;22.2;42.13867
80911;BME280;70359;51.420;7.032;2023-07-08T01:28:07;1002.226;;;22.15;43.00977
80911;BME280;70359;51.420;7.032;2023-07-08T01:30:32;1002.199;;;22.09;42.14063
80911;BME280;70359;51.420;7.032;2023-07-08T01:32:59;1002.193;;;22.05;42.2998
80911;BME280;70359;51.420;7.032;2023-07-08T01:35:22;1002.168;;;22.09;43.13281
80911;BME280;70359;51.420;7.032;2023-07-08T01:37:48;1002.173;;;22.07;42.58105
80911;BME280;70359;51.420;7.032;2023-07-08T01:40:21;1002.2;;;22.06;42.45313
80911;BME280;70359;51.420;7.032;2023-07-08T01:42:37;1002.19;;;22.05;42.44141
80911;BME280;70359;51.420;7.032;2023-07-08T01:45:03;1002.201;;;22.05;42.60449
80911;BME280;70359;51.420;7.032;2023-07-08T01:47:27;1002.205;;;22.05;43.52539
80911;BME280;70359;51.420;7.032;2023-07-08T01:49:52;1002.141;;;22.05;43.54883
80911;BME280;70359;51.420;7.032;2023-07-08T01:52:17;1002.122;;;22.03;43.21973
80911;BME280;70359;51.420;7.032;2023-07-08T01:54:42;1002.115;;;22.02;43.51074
80911;BME280;70359;51.420;7.032;2023-07-08T01:57:07;1002.1;;;22.01;43.7793
80911;BME280;70359;51.420;7.032;2023-07-08T01:59:32;1002.11;;;22;43.49805
80911;BME280;70359;51.420;7.032;2023-07-08T02:01:57;1002.074;;;21.98;43.81152
80911;BME280;70359;51.420;7.032;2023-07-08T02:04:23;1002.044;;;21.97;44.32324
80911;BME280;70359;51.420;7.032;2023-07-08T02:06:50;1002.034;;;21.97;44.69629
80911;BME280;70359;51.420;7.032;2023-07-08T02:09:12;1001.984;;;21.94;45.49805
80911;BME280;70359;51.420;7.032;2023-07-08T02:11:37;1001.955;;;21.93;44.75098
80911;BME280;70359;51.420;7.032;2023-07-08T02:14:02;1001.926;;;21.9;45.28516
80911;BME280;70359;51.420;7.032;2023-07-08T02:16:27;1001.892;;;21.89;45.22461
80911;BME280;70359;51.420;7.032;2023-07-08T02:18:52;1001.907;;;21.86;45.41992
80911;BME280;70359;51.420;7.032;2023-07-08T02:21:17;1001.859;;;21.87;45.30469
80911;BME280;70359;51.420;7.032;2023-07-08T02:23:42;1001.851;;;21.83;45.30078
80911;BME280;70359;51.420;7.032;2023-07-08T02:26:07;1001.818;;;21.85;45.42969
80911;BME280;70359;51.420;7.032;2023-07-08T02:28:32;1001.801;;;21.81;44.78516
80911;BME280;70359;51.420;7.032;2023-07-08T02:30:57;1001.757;;;21.81;45.34473
80911;BME280;70359;51.420;7.032;2023-07-08T02:33:22;1001.779;;;21.78;45.16699
80911;BME280;70359;51.420;7.032;2023-07-08T02:35:47;1001.752;;;21.8;44.55078
80911;BME280;70359;51.420;7.032;2023-07-08T02:38:12;1001.77;;;21.78;44.86426
80911;BME280;70359;51.420;7.032;2023-07-08T02:40:38;1001.769;;;21.78;45.07422
80911;BME280;70359;51.420;7.032;2023-07-08T02:43:02;1001.753;;;21.78;44.86426
80911;BME280;70359;51.420;7.032;2023-07-08T02:45:27;1001.741;;;21.76;44.53613
80911;BME280;70359;51.420;7.032;2023-07-08T02:47:52;1001.743;;;21.76;44.79102
80911;BME280;70359;51.420;7.032;2023-07-08T02:50:18;1001.75;;;21.71;45.34668
80911;BME280;70359;51.420;7.032;2023-07-08T02:52:43;1001.772;;;21.7;44.94922
80911;BME280;70359;51.420;7.032;2023-07-08T02:55:08;1001.768;;;21.65;44.97949
80911;BME280;70359;51.420;7.032;2023-07-08T02:57:33;1001.804;;;21.63;44.74414
80911;BME280;70359;51.420;7.032;2023-07-08T02:59:58;1001.804;;;21.59;44.7168
80911;BME280;70359;51.420;7.032;2023-07-08T03:02:23;1001.84;;;21.6;44.86914
80911;BME280;70359;51.420;7.032;2023-07-08T03:04:48;1001.828;;;21.58;44.90137
80911;BME280;70359;51.420;7.032;2023-07-08T03:07:13;1001.792;;;21.48;44.86914
80911;BME280;70359;51.420;7.032;2023-07-08T03:09:38;1001.799;;;21.48;45.21875
80911;BME280;70359;51.420;7.032;2023-07-08T03:12:03;1001.821;;;21.48;45.41699
80911;BME280;70359;51.420;7.032;2023-07-08T03:14:28;1001.775;;;21.45;45.57617
80911;BME280;70359;51.420;7.032;2023-07-08T03:16:53;1001.782;;;21.44;46.34375
80911;BME280;70359;51.420;7.032;2023-07-08T03:19:18;1001.788;;;21.46;45.97363
80911;BME280;70359;51.420;7.032;2023-07-08T03:21:43;1001.77;;;21.46;45.74023
80911;BME280;70359;51.420;7.032;2023-07-08T03:24:08;1001.743;;;21.45;46.53125
80911;BME280;70359;51.420;7.032;2023-07-08T03:26:33;1001.751;;;21.45;46.41504
80911;BME280;70359;51.420;7.032;2023-07-08T03:28:58;1001.744;;;21.42;45.96973
80911;BME280;70359;51.420;7.032;2023-07-08T03:31:23;1001.729;;;21.46;45.71777
80911;BME280;70359;51.420;7.032;2023-07-08T03:33:48;1001.697;;;21.43;45.95898
80911;BME280;70359;51.420;7.032;2023-07-08T03:36:14;1001.697;;;21.42;46.14453
80911;BME280;70359;51.420;7.032;2023-07-08T03:38:38;1001.689;;;21.4;46.35254
80911;BME280;70359;51.420;7.032;2023-07-08T03:41:03;1001.722;;;21.41;46.08496
80911;BME280;70359;51.420;7.032;2023-07-08T03:43:28;1001.697;;;21.4;46.80566
80911;BME280;70359;51.420;7.032;2023-07-08T03:45:53;1001.691;;;21.4;46.49219
80911;BME280;70359;51.420;7.032;2023-07-08T03:48:18;1001.712;;;21.37;46.61719
80911;BME280;70359;51.420;7.032;2023-07-08T03:50:43;1001.7;;;21.37;46.97754
80911;BME280;70359;51.420;7.032;2023-07-08T03:53:08;1001.698;;;21.33;47.42773
80911;BME280;70359;51.420;7.032;2023-07-08T03:55:33;1001.701;;;21.34;47.62695
80911;BME280;70359;51.420;7.032;2023-07-08T03:57:58;1001.706;;;21.34;45.77637
80911;BME280;70359;51.420;7.032;2023-07-08T04:00:23;1001.672;;;21.32;45.77344
80911;BME280;70359;51.420;7.032;2023-07-08T04:02:48;1001.684;;;21.32;46.18066
80911;BME280;70359;51.420;7.032;2023-07-08T04:05:14;1001.718;;;21.28;45.2793
80911;BME280;70359;51.420;7.032;2023-07-08T04:07:38;1001.705;;;21.27;46.1748
80911;BME280;70359;51.420;7.032;2023-07-08T04:10:03;1001.723;;;21.26;46.60449
80911;BME280;70359;51.420;7.032;2023-07-08T04:12:28;1001.753;;;21.24;46.41699
80911;BME280;70359;51.420;7.032;2023-07-08T04:14:53;1001.767;;;21.21;46.35547
80911;BME280;70359;51.420;7.032;2023-07-08T04:17:18;1001.805;;;21.23;46.55566
80911;BME280;70359;51.420;7.032;2023-07-08T04:19:43;1001.871;;;21.2;45.99414
80911;BME280;70359;51.420;7.032;2023-07-08T04:22:08;1001.898;;;21.24;46.3584
80911;BME280;70359;51.420;7.032;2023-07-08T04:24:33;1001.904;;;21.2;46.54004
80911;BME280;70359;51.420;7.032;2023-07-08T04:26:58;1001.904;;;21.22;46.47363
80911;BME280;70359;51.420;7.032;2023-07-08T04:29:23;1001.934;;;21.25;46.80176
80911;BME280;70359;51.420;7.032;2023-07-08T04:31:48;1001.93;;;21.25;46.79004
80911;BME280;70359;51.420;7.032;2023-07-08T04:34:13;1001.964;;;21.27;46.82715
80911;BME280;70359;51.420;7.032;2023-07-08T04:36:38;1001.939;;;21.17;47.23535
80911;BME280;70359;51.420;7.032;2023-07-08T04:39:03;1001.983;;;21.08;47.58691
80911;BME280;70359;51.420;7.032;2023-07-08T04:41:28;1001.995;;;21.17;47.01465
80911;BME280;70359;51.420;7.032;2023-07-08T04:43:53;1002.038;;;21.19;47.41309
80911;BME280;70359;51.420;7.032;2023-07-08T04:46:19;1002.029;;;21.28;47.3877
80911;BME280;70359;51.420;7.032;2023-07-08T04:48:43;1002.023;;;21.29;47.12109
80911;BME280;70359;51.420;7.032;2023-07-08T04:51:08;1001.991;;;21.38;46.66504
80911;BME280;70359;51.420;7.032;2023-07-08T04:53:33;1002.003;;;21.41;46.59766
80911;BME280;70359;51.420;7.032;2023-07-08T04:55:58;1001.975;;;21.45;46.4502
80911;BME280;70359;51.420;7.032;2023-07-08T04:58:23;1001.989;;;21.47;46.60352
80911;BME280;70359;51.420;7.032;2023-07-08T05:00:48;1001.975;;;21.52;46.70215
80911;BME280;70359;51.420;7.032;2023-07-08T05:03:13;1001.976;;;21.48;46.93066
80911;BME280;70359;51.420;7.032;2023-07-08T05:05:38;1001.994;;;21.52;46.24805
80911;BME280;70359;51.420;7.032;2023-07-08T05:08:03;1002.037;;;21.58;46.10156
80911;BME280;70359;51.420;7.032;2023-07-08T05:10:28;1002.001;;;21.57;46.74219
80911;BME280;70359;51.420;7.032;2023-07-08T05:12:53;1001.976;;;21.6;46.03516
80911;BME280;70359;51.420;7.032;2023-07-08T05:15:18;1001.964;;;21.58;46.33594
80911;BME280;70359;51.420;7.032;2023-07-08T05:17:45;1002.013;;;21.6;46.19824
80911;BME280;70359;51.420;7.032;2023-07-08T05:20:09;1001.994;;;21.7;46.19727
80911;BME280;70359;51.420;7.032;2023-07-08T05:22:33;1001.981;;;21.69;47.08203
80911;BME280;70359;51.420;7.032;2023-07-08T05:24:58;1001.995;;;21.73;46.54883
80911;BME280;70359;51.420;7.032;2023-07-08T05:27:23;1002.001;;;21.78;46.4375
80911;BME280;70359;51.420;7.032;2023-07-08T05:29:49;1001.976;;;21.74;46.72461
80911;BME280;70359;51.420;7.032;2023-07-08T05:32:13;1001.975;;;21.82;46.72168
80911;BME280;70359;51.420;7.032;2023-07-08T05:34:38;1001.989;;;21.89;46.35547
80911;BME280;70359;51.420;7.032;2023-07-08T05:37:03;1001.959;;;21.94;47.11816
80911;BME280;70359;51.420;7.032;2023-07-08T05:39:28;1002.015;;;21.96;46.17676
80911;BME280;70359;51.420;7.032;2023-07-08T05:41:53;1002.006;;;22.01;46.54395
80911;BME280;70359;51.420;7.032;2023-07-08T05:44:18;1002.032;;;21.99;47.1709
80911;BME280;70359;51.420;7.032;2023-07-08T05:46:43;1001.992;;;22.08;47.04004
80911;BME280;70359;51.420;7.032;2023-07-08T05:49:08;1001.973;;;22.06;47.11914
80911;BME280;70359;51.420;7.032;2023-07-08T05:51:33;1001.936;;;22.1;47.12402
80911;BME280;70359;51.420;7.032;2023-07-08T05:53:58;1001.937;;;22.11;47.58008
80911;BME280;70359;51.420;7.032;2023-07-08T05:56:23;1001.904;;;22.21;46.56445
80911;BME280;70359;51.420;7.032;2023-07-08T05:58:48;1001.885;;;22.21;46.35449
80911;BME280;70359;51.420;7.032;2023-07-08T06:01:13;1001.921;;;22.32;46.31836
80911;BME280;70359;51.420;7.032;2023-07-08T06:03:38;1001.91;;;22.36;45.77344
80911;BME280;70359;51.420;7.032;2023-07-08T06:06:03;1001.919;;;22.42;46.08398
80911;BME280;70359;51.420;7.032;2023-07-08T06:08:28;1001.925;;;22.5;45.4502
80911;BME280;70359;51.420;7.032;2023-07-08T06:10:53;1001.927;;;22.59;46.05469
80911;BME280;70359;51.420;7.032;2023-07-08T06:13:18;1001.945;;;22.7;46.43945
80911;BME280;70359;51.420;7.032;2023-07-08T06:15:43;1001.898;;;22.8;45.23535
80911;BME280;70359;51.420;7.032;2023-07-08T06:18:08;1001.843;;;22.85;45.53223
80911;BME280;70359;51.420;7.032;2023-07-08T06:20:33;1001.819;;;22.92;44.70898
80911;BME280;70359;51.420;7.032;2023-07-08T06:22:58;1001.809;;;23.04;45.54004
80911;BME280;70359;51.420;7.032;2023-07-08T06:25:23;1001.805;;;23.21;45.31152
80911;BME280;70359;51.420;7.032;2023-07-08T06:27:48;1001.822;;;23.3;43.93848
80911;BME280;70359;51.420;7.032;2023-07-08T06:30:13;1001.861;;;23.38;44.53223
80911;BME280;70359;51.420;7.032;2023-07-08T06:32:38;1001.856;;;23.48;44.02734
80911;BME280;70359;51.420;7.032;2023-07-08T06:35:06;1001.938;;;23.54;44.80566
80911;BME280;70359;51.420;7.032;2023-07-08T06:37:28;1001.949;;;23.6;43.78125
80911;BME280;70359;51.420;7.032;2023-07-08T06:39:53;1002.004;;;23.63;43.71387
80911;BME280;70359;51.420;7.032;2023-07-08T06:42:18;1002.041;;;23.88;43.66797
80911;BME280;70359;51.420;7.032;2023-07-08T06:44:43;1002.05;;;23.92;44.25781
80911;BME280;70359;51.420;7.032;2023-07-08T06:47:08;1001.987;;;24.1;43.86523
80911;BME280;70359;51.420;7.032;2023-07-08T06:49:33;1001.947;;;24.15;43.11914
80911;BME280;70359;51.420;7.032;2023-07-08T06:51:58;1001.998;;;24.27;42.88379
80911;BME280;70359;51.420;7.032;2023-07-08T06:54:23;1001.949;;;24.39;43.1416
80911;BME280;70359;51.420;7.032;2023-07-08T06:56:48;1001.923;;;24.5;42.94141
80911;BME280;70359;51.420;7.032;2023-07-08T06:59:13;1001.885;;;24.51;41.9209
80911;BME280;70359;51.420;7.032;2023-07-08T07:01:38;1001.905;;;24.7;42.60938
80911;BME280;70359;51.420;7.032;2023-07-08T07:04:03;1001.893;;;24.72;41.78809
80911;BME280;70359;51.420;7.032;2023-07-08T07:06:28;1001.899;;;24.94;42.93652
80911;BME280;70359;51.420;7.032;2023-07-08T07:08:57;1001.878;;;24.98;42.51758
80911;BME280;70359;51.420;7.032;2023-07-08T07:11:18;1001.862;;;25.18;42.81836
80911;BME280;70359;51.420;7.032;2023-07-08T07:13:43;1001.851;;;25.22;42.66895
80911;BME280;70359;51.420;7.032;2023-07-08T07:16:08;1001.816;;;25.38;42.63672
80911;BME280;70359;51.420;7.032;2023-07-08T07:18:33;1001.785;;;25.42;42.19434
80911;BME280;70359;51.420;7.032;2023-07-08T07:20:58;1001.751;;;25.47;40.42188
80911;BME280;70359;51.420;7.032;2023-07-08T07:23:23;1001.728;;;25.63;42.91992
80911;BME280;70359;51.420;7.032;2023-07-08T07:25:48;1001.744;;;25.79;42.00488
80911;BME280;70359;51.420;7.032;2023-07-08T07:28:13;1001.75;;;25.87;41.94043
80911;BME280;70359;51.420;7.032;2023-07-08T07:30:38;1001.788;;;26.02;41.44922
80911;BME280;70359;51.420;7.032;2023-07-08T07:33:03;1001.762;;;26.16;40.42383
80911;BME280;70359;51.420;7.032;2023-07-08T07:35:28;1001.799;;;26.26;40.48047
80911;BME280;70359;51.420;7.032;2023-07-08T07:37:53;1001.794;;;26.33;40.25195
80911;BME280;70359;51.420;7.032;2023-07-08T07:40:18;1001.879;;;26.46;40.91211
80911;BME280;70359;51.420;7.032;2023-07-08T07:42:44;1001.883;;;26.59;40.55762
80911;BME280;70359;51.420;7.032;2023-07-08T07:45:09;1001.909;;;26.63;41.45801
80911;BME280;70359;51.420;7.032;2023-07-08T07:47:33;1001.909;;;26.76;39.40332
80911;BME280;70359;51.420;7.032;2023-07-08T07:49:58;1001.922;;;26.78;39.3457
80911;BME280;70359;51.420;7.032;2023-07-08T07:52:23;1001.959;;;26.97;40.04785
80911;BME280;70359;51.420;7.032;2023-07-08T07:54:48;1001.997;;;27.02;39.4502
80911;BME280;70359;51.420;7.032;2023-07-08T07:57:13;1001.918;;;27.13;38.03027
80911;BME280;70359;51.420;7.032;2023-07-08T07:59:38;1001.954;;;27.18;38.86133
80911;BME280;70359;51.420;7.032;2023-07-08T08:02:03;1001.974;;;27.32;39.2041
80911;BME280;70359;51.420;7.032;2023-07-08T08:04:28;1001.939;;;27.39;39.53027
80911;BME280;70359;51.420;7.032;2023-07-08T08:06:53;1001.929;;;27.53;38.08594
80911;BME280;70359;51.420;7.032;2023-07-08T08:09:18;1001.879;;;27.68;39.06934
80911;BME280;70359;51.420;7.032;2023-07-08T08:11:43;1001.877;;;27.84;38.59766
80911;BME280;70359;51.420;7.032;2023-07-08T08:14:08;1001.932;;;27.9;37.28906
80911;BME280;70359;51.420;7.032;2023-07-08T08:16:33;1001.966;;;27.92;36.94629
80911;BME280;70359;51.420;7.032;2023-07-08T08:18:58;1001.953;;;28;38.69434
80911;BME280;70359;51.420;7.032;2023-07-08T08:21:23;1001.923;;;28.22;36.93555
80911;BME280;70359;51.420;7.032;2023-07-08T08:23:48;1001.939;;;28.24;37.25684
80911;BME280;70359;51.420;7.032;2023-07-08T08:26:13;1001.919;;;28.41;39.0498
80911;BME280;70359;51.420;7.032;2023-07-08T08:28:38;1001.919;;;28.42;37.46191
80911;BME280;70359;51.420;7.032;2023-07-08T08:31:03;1001.943;;;28.52;37.65918
80911;BME280;70359;51.420;7.032;2023-07-08T08:33:28;1001.972;;;28.55;39.0498
80911;BME280;70359;51.420;7.032;2023-07-08T08:35:53;1001.966;;;28.59;35.83789
80911;BME280;70359;51.420;7.032;2023-07-08T08:38:18;1002.047;;;28.62;38.41504
80911;BME280;70359;51.420;7.032;2023-07-08T08:40:43;1002.003;;;28.7;36.14355
80911;BME280;70359;51.420;7.032;2023-07-08T08:43:12;1001.984;;;28.72;34.7793
80911;BME280;70359;51.420;7.032;2023-07-08T08:45:34;1002;;;28.71;31.22656
80911;BME280;70359;51.420;7.032;2023-07-08T08:48:00;1001.978;;;28.79;33.44238
80911;BME280;70359;51.420;7.032;2023-07-08T08:50:31;1002.009;;;28.82;32.61328
80911;BME280;70359;51.420;7.032;2023-07-08T08:52:48;1002.023;;;28.86;31.25977
80911;BME280;70359;51.420;7.032;2023-07-08T08:55:14;1002.104;;;28.92;33.07129
80911;BME280;70359;51.420;7.032;2023-07-08T08:57:40;1002.061;;;29.05;32.17676
80911;BME280;70359;51.420;7.032;2023-07-08T09:00:04;1002.026;;;29;31.9834
80911;BME280;70359;51.420;7.032;2023-07-08T09:02:30;1002.049;;;29.1;32.2041
80911;BME280;70359;51.420;7.032;2023-07-08T09:04:54;1002.038;;;29.05;32.21289
80911;BME280;70359;51.420;7.032;2023-07-08T09:07:19;1002.091;;;29.13;33.34863
80911;BME280;70359;51.420;7.032;2023-07-08T09:09:46;1002.103;;;29.11;31.44434
80911;BME280;70359;51.420;7.032;2023-07-08T09:12:10;1002.127;;;29.11;31.51563
80911;BME280;70359;51.420;7.032;2023-07-08T09:14:34;1002.171;;;29.1;31.43066
80911;BME280;70359;51.420;7.032;2023-07-08T09:17:01;1002.231;;;29.12;30.27832
80911;BME280;70359;51.420;7.032;2023-07-08T09:19:26;1002.186;;;29.08;30.03809
80911;BME280;70359;51.420;7.032;2023-07-08T09:21:49;1002.172;;;29.11;29.5166
80911;BME280;70359;51.420;7.032;2023-07-08T09:24:15;1002.144;;;28.98;28.88867
80911;BME280;70359;51.420;7.032;2023-07-08T09:26:38;1002.096;;;29.03;31.71191
80911;BME280;70359;51.420;7.032;2023-07-08T09:29:04;1002.065;;;29.01;30.93848
80911;BME280;70359;51.420;7.032;2023-07-08T09:31:30;1002.048;;;29.06;30.87012
80911;BME280;70359;51.420;7.032;2023-07-08T09:34:04;1002.055;;;29.04;31.18945
80911;BME280;70359;51.420;7.032;2023-07-08T09:36:22;1002.022;;;29.12;31.84961
80911;BME280;70359;51.420;7.032;2023-07-08T09:38:43;1002.035;;;29.06;30.52441
80911;BME280;70359;51.420;7.032;2023-07-08T09:41:08;1002.055;;;29.16;31.54297
80911;BME280;70359;51.420;7.032;2023-07-08T09:43:35;1002.091;;;29.16;32.04297
80911;BME280;70359;51.420;7.032;2023-07-08T09:45:59;1002.081;;;29.2;31.05762
80911;BME280;70359;51.420;7.032;2023-07-08T09:48:25;1002.095;;;29.14;28.73242
80911;BME280;70359;51.420;7.032;2023-07-08T09:50:49;1002.074;;;29.2;28.9502
80911;BME280;70359;51.420;7.032;2023-07-08T09:53:14;1002.096;;;29.26;29.37109
80911;BME280;70359;51.420;7.032;2023-07-08T09:55:38;1002.151;;;29.34;30.51953
80911;BME280;70359;51.420;7.032;2023-07-08T09:58:04;1002.158;;;29.48;30.08789
80911;BME280;70359;51.420;7.032;2023-07-08T10:00:31;1002.146;;;29.47;29.73047
80911;BME280;70359;51.420;7.032;2023-07-08T10:02:55;1002.13;;;29.57;30.41602
80911;BME280;70359;51.420;7.032;2023-07-08T10:05:28;1002.152;;;29.52;28.82715
80911;BME280;70359;51.420;7.032;2023-07-08T10:07:44;1002.188;;;29.6;30.4541
80911;BME280;70359;51.420;7.032;2023-07-08T10:10:11;1002.184;;;29.57;29.33105
80911;BME280;70359;51.420;7.032;2023-07-08T10:12:34;1002.15;;;29.65;31.07617
80911;BME280;70359;51.420;7.032;2023-07-08T10:15:00;1002.166;;;29.61;31.72852
80911;BME280;70359;51.420;7.032;2023-07-08T10:17:24;1002.175;;;29.69;30.12598
80911;BME280;70359;51.420;7.032;2023-07-08T10:19:49;1002.14;;;29.64;30.80176
80911;BME280;70359;51.420;7.032;2023-07-08T10:22:21;1002.076;;;29.75;30.90527
80911;BME280;70359;51.420;7.032;2023-07-08T10:24:45;1002.106;;;29.67;29.24219
80911;BME280;70359;51.420;7.032;2023-07-08T10:27:07;1002.037;;;29.81;28.95313
80911;BME280;70359;51.420;7.032;2023-07-08T10:29:31;1002.034;;;29.79;29.26172
80911;BME280;70359;51.420;7.032;2023-07-08T10:31:56;1002.016;;;29.88;27.89648
80911;BME280;70359;51.420;7.032;2023-07-08T10:34:32;1001.98;;;29.77;26.94727
80911;BME280;70359;51.420;7.032;2023-07-08T10:36:47;1001.936;;;29.87;28.0752
80911;BME280;70359;51.420;7.032;2023-07-08T10:39:15;1001.844;;;29.79;28.6543
80911;BME280;70359;51.420;7.032;2023-07-08T10:41:35;1001.839;;;29.83;28.28711
80911;BME280;70359;51.420;7.032;2023-07-08T10:44:02;1001.917;;;29.89;29.30469
80911;BME280;70359;51.420;7.032;2023-07-08T10:46:28;1001.856;;;29.87;27.49023
80911;BME280;70359;51.420;7.032;2023-07-08T10:51:16;1001.895;;;29.9;28.23145
80911;BME280;70359;51.420;7.032;2023-07-08T10:53:41;1001.895;;;29.94;30.11816
80911;BME280;70359;51.420;7.032;2023-07-08T10:56:05;1001.867;;;29.9;27.83789
80911;BME280;70359;51.420;7.032;2023-07-08T10:58:34;1001.84;;;29.98;28.89258
80911;BME280;70359;51.420;7.032;2023-07-08T11:00:55;1001.748;;;30.01;27.10449
80911;BME280;70359;51.420;7.032;2023-07-08T11:05:44;1001.734;;;30.01;28.52441
80911;BME280;70359;51.420;7.032;2023-07-08T11:08:11;1001.78;;;30.05;29.60059
80911;BME280;70359;51.420;7.032;2023-07-08T11:10:35;1001.714;;;29.96;28.22363
80911;BME280;70359;51.420;7.032;2023-07-08T11:13:00;1001.701;;;30.02;27.85742
80911;BME280;70359;51.420;7.032;2023-07-08T11:15:25;1001.695;;;29.95;27.43555
80911;BME280;70359;51.420;7.032;2023-07-08T11:17:51;1001.693;;;30.01;27.40332
80911;BME280;70359;51.420;7.032;2023-07-08T11:20:16;1001.698;;;30;28.11816
80911;BME280;70359;51.420;7.032;2023-07-08T11:22:39;1001.662;;;30.06;27.62109
80911;BME280;70359;51.420;7.032;2023-07-08T11:25:04;1001.655;;;30.02;28.51367
80911;BME280;70359;51.420;7.032;2023-07-08T11:27:30;1001.721;;;30.22;27.75
80911;BME280;70359;51.420;7.032;2023-07-08T11:29:54;1001.679;;;30.07;25.65137
80911;BME280;70359;51.420;7.032;2023-07-08T11:32:20;1001.664;;;30.12;26.49023
80911;BME280;70359;51.420;7.032;2023-07-08T11:34:44;1001.643;;;30.09;26.97852
80911;BME280;70359;51.420;7.032;2023-07-08T11:37:09;1001.614;;;30.18;27.97363
80911;BME280;70359;51.420;7.032;2023-07-08T11:39:38;1001.625;;;30.11;27.16992
80911;BME280;70359;51.420;7.032;2023-07-08T11:42:09;1001.647;;;30.2;26.85352
80911;BME280;70359;51.420;7.032;2023-07-08T11:44:24;1001.607;;;30.09;26.62012
80911;BME280;70359;51.420;7.032;2023-07-08T11:46:56;1001.593;;;30.2;27.87988
80911;BME280;70359;51.420;7.032;2023-07-08T11:49:14;1001.621;;;30.2;28.13086
80911;BME280;70359;51.420;7.032;2023-07-08T11:51:40;1001.56;;;30.25;27.5127
80911;BME280;70359;51.420;7.032;2023-07-08T11:54:09;1001.541;;;30.27;26.92871
80911;BME280;70359;51.420;7.032;2023-07-08T11:56:29;1001.523;;;30.26;26.58203
80911;BME280;70359;51.420;7.032;2023-07-08T12:01:22;1001.49;;;30.32;28.04297
80911;BME280;70359;51.420;7.032;2023-07-08T12:03:51;1001.475;;;30.34;27.97266
80911;BME280;70359;51.420;7.032;2023-07-08T12:08:36;1001.486;;;30.35;28.09277
80911;BME280;70359;51.420;7.032;2023-07-08T12:10:59;1001.528;;;30.29;28.12402
80911;BME280;70359;51.420;7.032;2023-07-08T12:13:24;1001.463;;;30.32;27.2666
80911;BME280;70359;51.420;7.032;2023-07-08T12:15:49;1001.443;;;30.28;27.8252
80911;BME280;70359;51.420;7.032;2023-07-08T12:18:15;1001.41;;;30.32;27.69629
80911;BME280;70359;51.420;7.032;2023-07-08T12:20:40;1001.429;;;30.29;27.93359
80911;BME280;70359;51.420;7.032;2023-07-08T12:23:04;1001.389;;;30.3;26.30957
80911;BME280;70359;51.420;7.032;2023-07-08T12:25:30;1001.37;;;30.28;27.55078
80911;BME280;70359;51.420;7.032;2023-07-08T12:27:54;1001.365;;;30.36;27.79395
80911;BME280;70359;51.420;7.032;2023-07-08T12:30:19;1001.336;;;30.36;27.50684
80911;BME280;70359;51.420;7.032;2023-07-08T12:32:44;1001.339;;;30.38;27.19824